Time;durP1;ratioP1;P1;durP2;ratioP2;P2;SDS_P1;SDS_P2;PMS_P1;PMS_P2;Temp;Humidity;BMP_temperature;BMP_pressure;BME280_temperature;BME280_humidity;BME280_pressure;Samples;Min_cycle;Max_cycle;Signal;HPM_P1;HPM_P2
2022/09/12 00:01:22;;;;;;;11.18;10.18;;;14.80;99.90;;;;;;5048211;28;20040;-61
2022/09/12 00:03:54;;;;;;;10.02;9.15;;;14.80;99.90;;;;;;5054048;28;20045;-61
2022/09/12 00:06:30;;;;;;;10.27;9.38;;;14.80;99.90;;;;;;5047708;28;20392;-61
2022/09/12 00:08:59;;;;;;;10.43;9.43;;;14.80;99.90;;;;;;5044802;28;20473;-62
2022/09/12 00:11:25;;;;;;;10.70;9.70;;;14.80;99.90;;;;;;5042768;28;20041;-61
2022/09/12 00:13:55;;;;;;;11.10;10.10;;;14.80;99.90;;;;;;5061244;28;20376;-61
2022/09/12 00:16:24;;;;;;;10.52;9.52;;;14.70;99.90;;;;;;5045274;28;20454;-61
2022/09/12 00:18:51;;;;;;;10.65;9.75;;;14.70;99.90;;;;;;5055567;28;20040;-61
2022/09/12 00:21:18;;;;;;;11.05;10.05;;;14.70;99.90;;;;;;5049708;28;20056;-61
2022/09/12 00:23:45;;;;;;;11.55;10.35;;;14.70;99.90;;;;;;5052703;28;20412;-61
2022/09/12 00:26:10;;;;;;;11.55;10.55;;;14.60;99.90;;;;;;5054758;28;20367;-62
2022/09/12 00:28:38;;;;;;;11.75;10.65;;;14.60;99.90;;;;;;5047916;28;20139;-61
2022/09/12 00:31:06;;;;;;;11.13;10.02;;;14.60;99.90;;;;;;5059025;28;20040;-61
2022/09/12 00:33:33;;;;;;;11.98;10.80;;;14.50;99.90;;;;;;5043183;28;20049;-61
2022/09/12 00:35:58;;;;;;;10.68;9.63;;;14.50;99.90;;;;;;5059728;28;20043;-61
2022/09/12 00:38:24;;;;;;;11.10;10.02;;;14.50;99.90;;;;;;5046825;28;20040;-61
2022/09/12 00:40:50;;;;;;;11.05;10.05;;;14.50;99.90;;;;;;5055289;28;20048;-61
2022/09/12 00:43:36;;;;;;;11.85;10.75;;;14.50;99.90;;;;;;5050827;28;20106;-62
2022/09/12 00:46:12;;;;;;;11.55;10.52;;;14.40;99.90;;;;;;5048058;28;20053;-61
2022/09/12 00:48:44;;;;;;;12.10;10.98;;;14.40;99.90;;;;;;5058362;28;20795;-61
2022/09/12 00:51:11;;;;;;;12.75;11.43;;;14.30;99.90;;;;;;5042350;28;20048;-61
2022/09/12 00:53:38;;;;;;;11.50;10.50;;;14.20;99.90;;;;;;5056676;28;20088;-61
2022/09/12 00:56:05;;;;;;;11.75;10.73;;;14.20;99.90;;;;;;5048473;28;20048;-61
2022/09/12 00:58:42;;;;;;;12.00;10.88;;;14.20;99.90;;;;;;5053457;28;20037;-61
2022/09/12 01:01:08;;;;;;;12.00;10.82;;;14.20;99.90;;;;;;5053832;28;20044;-61
2022/09/12 01:03:33;;;;;;;12.00;10.90;;;14.10;99.90;;;;;;5046777;28;20045;-61
2022/09/12 01:06:09;;;;;;;12.68;11.57;;;14.00;99.90;;;;;;5052037;28;20045;-61
2022/09/12 01:08:36;;;;;;;13.20;12.05;;;14.00;99.90;;;;;;5061322;28;20048;-61
2022/09/12 01:11:04;;;;;;;14.63;11.90;;;14.00;99.90;;;;;;5058543;28;20037;-61
2022/09/12 01:13:32;;;;;;;13.63;12.35;;;14.00;99.90;;;;;;5047312;28;20114;-61
2022/09/12 01:15:58;;;;;;;13.10;11.80;;;14.00;99.90;;;;;;5053520;28;20044;-61
2022/09/12 01:18:34;;;;;;;13.27;12.10;;;14.10;99.90;;;;;;5051914;28;20582;-62
2022/09/12 01:21:03;;;;;;;13.63;12.43;;;14.10;99.90;;;;;;5046557;28;20088;-61
2022/09/12 01:24:19;;;;;;;13.75;12.45;;;14.10;99.90;;;;;;5058494;28;20041;-61
2022/09/12 01:27:03;;;;;;;14.80;13.30;;;14.10;99.90;;;;;;5041374;28;20109;-61
2022/09/12 01:29:46;;;;;;;14.93;13.60;;;14.10;99.90;;;;;;5053826;28;20044;-61
2022/09/12 01:32:18;;;;;;;13.98;12.68;;;14.10;99.90;;;;;;5061439;28;20505;-61
2022/09/12 01:34:57;;;;;;;14.73;13.32;;;14.00;99.90;;;;;;5047531;28;20124;-61
2022/09/12 01:37:33;;;;;;;14.65;13.25;;;13.90;99.90;;;;;;5060536;28;20045;-63
2022/09/12 01:40:07;;;;;;;14.70;13.27;;;13.90;99.90;;;;;;5053696;28;20044;-61
2022/09/12 01:42:53;;;;;;;;;;;13.90;99.90;;;;;;5053877;28;20450;-61
2022/09/12 01:45:28;;;;;;;;;;;13.80;99.90;;;;;;5051511;28;20349;-62
2022/09/12 01:48:08;;;;;;;15.07;13.57;;;13.80;99.90;;;;;;5046971;28;19921;-62
2022/09/12 01:50:42;;;;;;;15.18;13.80;;;13.80;99.90;;;;;;5059248;28;20284;-61
2022/09/12 01:53:15;;;;;;;16.63;15.15;;;13.80;99.90;;;;;;5053367;28;20048;-61
2022/09/12 01:55:53;;;;;;;16.02;14.55;;;13.70;99.90;;;;;;5053221;28;20044;-61
2022/09/12 01:58:33;;;;;;;15.73;14.32;;;13.80;99.90;;;;;;5061494;28;20091;-61
2022/09/12 02:01:21;;;;;;;15.57;14.18;;;13.80;99.90;;;;;;5047248;28;20040;-61
2022/09/12 02:03:59;;;;;;;16.92;15.32;;;13.80;99.90;;;;;;5057359;28;20120;-61
2022/09/12 02:06:32;;;;;;;16.05;14.55;;;13.80;99.90;;;;;;5051767;28;20166;-61
2022/09/12 02:09:14;;;;;;;17.00;15.27;;;13.90;99.90;;;;;;5047592;28;20052;-61
2022/09/12 02:11:43;;;;;;;17.38;15.73;;;13.70;99.90;;;;;;5044385;28;20111;-61
2022/09/12 02:14:14;;;;;;;16.60;15.10;;;13.70;99.90;;;;;;5047049;28;20079;-61
2022/09/12 02:16:45;;;;;;;17.38;15.77;;;13.60;99.90;;;;;;5058718;28;20127;-61
2022/09/12 02:19:21;;;;;;;17.60;15.88;;;13.60;99.90;;;;;;5052220;28;20129;-61
2022/09/12 02:21:55;;;;;;;17.15;15.45;;;13.60;99.90;;;;;;5053581;28;20049;-61
2022/09/12 02:24:24;;;;;;;17.38;15.75;;;13.50;99.90;;;;;;5059878;28;20051;-61
2022/09/12 02:26:55;;;;;;;17.65;15.95;;;13.40;99.90;;;;;;5047056;28;20491;-61
2022/09/12 02:29:21;;;;;;;18.38;16.65;;;13.50;99.90;;;;;;5062771;28;20450;-61
2022/09/12 02:32:25;;;;;;;18.70;16.83;;;13.40;99.90;;;;;;5047300;28;20036;-61
2022/09/12 02:35:02;;;;;;;19.45;17.58;;;13.40;99.90;;;;;;5053381;28;20158;-61
2022/09/12 02:37:43;;;;;;;20.00;18.00;;;13.30;99.90;;;;;;5048578;28;20132;-62
2022/09/12 02:40:09;;;;;;;21.75;19.55;;;13.30;99.90;;;;;;5062780;28;20446;-61
2022/09/12 02:42:35;;;;;;;22.50;20.40;;;13.30;99.90;;;;;;5046070;28;20044;-61
2022/09/12 02:45:02;;;;;;;22.77;20.10;;;13.30;99.90;;;;;;5059482;28;20555;-61
2022/09/12 02:47:35;;;;;;;22.88;20.58;;;13.40;99.90;;;;;;5049960;28;20044;-61
2022/09/12 02:50:04;;;;;;;24.42;20.75;;;13.40;99.90;;;;;;5054591;28;20083;-61
2022/09/12 02:52:30;;;;;;;24.20;21.77;;;13.30;99.90;;;;;;5056487;28;20052;-61
2022/09/12 02:54:57;;;;;;;23.77;20.85;;;13.30;99.90;;;;;;5049415;28;21576;-61
2022/09/12 02:57:23;;;;;;;22.10;19.83;;;13.40;99.90;;;;;;5060977;28;20040;-62
2022/09/12 02:59:52;;;;;;;22.77;20.50;;;13.30;99.90;;;;;;5045947;28;20036;-61
2022/09/12 03:02:39;;;;;;;24.60;22.20;;;13.30;99.90;;;;;;5060350;28;20347;-61
2022/09/12 03:05:14;;;;;;;24.27;21.90;;;13.20;99.90;;;;;;5050340;28;20415;-62
2022/09/12 03:07:59;;;;;;;;;;;13.20;99.90;;;;;;5059777;28;20067;-61
2022/09/12 03:10:52;;;;;;;24.83;22.43;;;13.10;99.90;;;;;;5063473;28;20329;-61
2022/09/12 03:13:20;;;;;;;24.90;22.45;;;13.00;99.90;;;;;;5047991;28;20044;-61
2022/09/12 03:15:58;;;;;;;24.52;22.02;;;13.10;99.90;;;;;;5057262;28;20045;-61
2022/09/12 03:18:35;;;;;;;25.58;23.08;;;13.00;99.90;;;;;;5053587;28;20063;-62
2022/09/12 03:21:15;;;;;;;26.88;24.17;;;13.00;99.90;;;;;;5049824;28;20150;-61
2022/09/12 03:23:56;;;;;;;27.25;24.48;;;13.00;99.90;;;;;;5061439;28;20110;-61
2022/09/12 03:26:41;;;;;;;27.58;24.67;;;13.00;99.90;;;;;;5047855;28;20040;-61
2022/09/12 03:29:07;;;;;;;;;;;13.00;99.90;;;;;;5055337;28;20448;-61
2022/09/12 03:31:33;;;;;;;28.92;25.92;;;13.00;99.90;;;;;;5053116;28;19930;-61
2022/09/12 03:33:59;;;;;;;30.63;27.33;;;13.00;99.90;;;;;;5049452;28;20158;-61
2022/09/12 03:36:27;;;;;;;28.33;25.40;;;13.00;99.90;;;;;;5058364;28;20049;-61
2022/09/12 03:38:53;;;;;;;28.63;25.58;;;13.00;99.90;;;;;;5045482;28;20056;-63
2022/09/12 03:41:19;;;;;;;28.75;25.83;;;12.90;99.90;;;;;;5062023;28;20079;-61
2022/09/12 03:43:45;;;;;;;31.27;27.95;;;13.50;99.90;;;;;;5045454;28;20459;-61
2022/09/12 03:46:11;;;;;;;30.70;27.40;;;12.90;99.90;;;;;;5057489;28;20549;-61
2022/09/12 03:48:37;;;;;;;30.08;26.80;;;13.00;99.90;;;;;;5050055;28;20044;-61
2022/09/12 03:51:04;;;;;;;31.63;27.80;;;12.90;99.90;;;;;;5053169;28;20508;-61
2022/09/12 03:53:30;;;;;;;31.92;28.25;;;13.00;99.90;;;;;;5053551;28;20106;-61
2022/09/12 03:55:57;;;;;;;32.28;28.77;;;13.00;99.90;;;;;;5049223;28;20045;-61
2022/09/12 03:58:23;;;;;;;33.47;29.13;;;13.10;99.90;;;;;;5058401;28;20380;-63
2022/09/12 04:00:49;;;;;;;35.88;31.35;;;13.00;99.90;;;;;;5045236;28;20113;-64
2022/09/12 04:03:15;;;;;;;38.92;30.60;;;13.00;99.90;;;;;;5060050;28;20036;-61
2022/09/12 04:05:40;;;;;;;36.40;31.30;;;13.00;99.90;;;;;;5048411;28;20041;-61
2022/09/12 04:08:06;;;;;;;34.75;30.95;;;13.00;99.90;;;;;;5053823;28;20439;-61
2022/09/12 04:10:31;;;;;;;35.65;30.52;;;13.10;99.90;;;;;;5053798;28;20123;-61
2022/09/12 04:12:57;;;;;;;35.08;30.58;;;13.00;99.90;;;;;;5052906;28;20406;-61
2022/09/12 04:15:23;;;;;;;39.53;32.38;;;13.00;99.90;;;;;;5050497;28;20128;-63
2022/09/12 04:17:48;;;;;;;36.22;32.25;;;12.90;99.90;;;;;;5054710;28;20099;-61
2022/09/12 04:20:14;;;;;;;36.17;32.25;;;13.00;99.90;;;;;;5046151;28;20056;-61
2022/09/12 04:22:40;;;;;;;39.70;33.55;;;13.00;99.90;;;;;;5059898;28;20384;-61
2022/09/12 04:25:06;;;;;;;38.72;33.40;;;12.90;99.90;;;;;;5045026;28;20134;-61
2022/09/12 04:27:32;;;;;;;42.08;34.85;;;13.00;99.90;;;;;;5057445;28;20072;-61
2022/09/12 04:30:00;;;;;;;43.10;35.30;;;12.90;99.90;;;;;;5048465;28;20527;-61
2022/09/12 04:32:25;;;;;;;41.40;34.38;;;13.00;99.90;;;;;;5051241;28;20090;-61
2022/09/12 04:34:51;;;;;;;44.22;35.67;;;13.00;99.90;;;;;;5053398;28;20582;-61
2022/09/12 04:37:17;;;;;;;41.65;34.58;;;13.00;99.90;;;;;;5049467;28;20048;-61
2022/09/12 04:39:43;;;;;;;42.47;34.72;;;12.90;99.90;;;;;;5056825;28;20044;-61
2022/09/12 04:42:08;;;;;;;41.50;36.05;;;12.90;99.90;;;;;;5043523;28;20044;-61
2022/09/12 04:44:34;;;;;;;44.58;35.83;;;13.00;99.90;;;;;;5059868;28;20044;-61
2022/09/12 04:47:00;;;;;;;42.25;35.53;;;13.00;99.90;;;;;;5044648;28;20043;-61
2022/09/12 04:49:25;;;;;;;43.33;36.20;;;13.00;99.90;;;;;;5056315;28;20637;-61
2022/09/12 04:51:53;;;;;;;41.90;35.83;;;13.00;99.90;;;;;;5049097;28;20036;-61
2022/09/12 04:54:19;;;;;;;44.05;35.85;;;13.00;99.90;;;;;;5052493;28;20138;-61
2022/09/12 04:56:47;;;;;;;45.88;37.88;;;13.00;99.90;;;;;;5053375;28;20090;-62
2022/09/12 04:59:15;;;;;;;46.60;37.38;;;13.00;99.90;;;;;;5048393;28;20049;-61
2022/09/12 05:01:41;;;;;;;44.17;36.75;;;13.00;99.90;;;;;;5059364;28;20053;-61
2022/09/12 05:04:09;;;;;;;45.20;34.95;;;13.00;99.90;;;;;;5048269;28;20035;-61
2022/09/12 05:06:35;;;;;;;44.10;37.08;;;13.00;99.90;;;;;;5059009;28;20052;-61
2022/09/12 05:09:03;;;;;;;43.30;36.50;;;13.10;99.90;;;;;;5065927;28;20039;-61
2022/09/12 05:11:31;;;;;;;46.85;36.50;;;13.10;99.90;;;;;;5059285;28;20045;-61
2022/09/12 05:13:57;;;;;;;47.80;36.42;;;13.00;99.90;;;;;;5055234;28;20051;-61
2022/09/12 05:16:24;;;;;;;44.00;36.42;;;13.00;99.90;;;;;;5054058;28;20040;-62
2022/09/12 05:18:50;;;;;;;46.13;36.15;;;13.10;99.90;;;;;;5059791;28;20383;-61
2022/09/12 05:21:19;;;;;;;46.67;36.63;;;13.10;99.90;;;;;;5048759;28;20056;-60
2022/09/12 05:23:46;;;;;;;46.08;36.88;;;13.10;99.90;;;;;;5063759;28;20464;-61
2022/09/12 05:26:14;;;;;;;43.03;35.80;;;13.20;99.90;;;;;;5046836;28;20056;-61
2022/09/12 05:28:40;;;;;;;47.22;37.78;;;13.20;99.90;;;;;;5059673;28;20029;-61
2022/09/12 05:31:09;;;;;;;43.70;37.42;;;13.20;99.90;;;;;;5051791;28;20403;-61
2022/09/12 05:33:36;;;;;;;47.28;37.90;;;13.30;99.90;;;;;;5056377;28;20439;-61
2022/09/12 05:36:03;;;;;;;46.55;35.50;;;13.30;99.90;;;;;;5057028;28;20048;-61
2022/09/12 05:38:28;;;;;;;45.15;37.70;;;13.40;99.90;;;;;;5051519;28;20415;-61
2022/09/12 05:41:19;;;;;;;41.70;34.38;;;13.50;99.90;;;;;;5061387;28;20056;-61
2022/09/12 05:43:45;;;;;;;46.03;35.50;;;13.50;99.90;;;;;;5048730;28;20037;-61
2022/09/12 05:46:16;;;;;;;44.38;36.92;;;13.60;99.90;;;;;;5059815;28;20089;-61
2022/09/12 05:48:44;;;;;;;44.53;36.95;;;13.60;99.90;;;;;;5052612;28;20791;-61
2022/09/12 05:51:22;;;;;;;41.72;34.13;;;13.70;99.90;;;;;;5055291;28;20048;-61
2022/09/12 05:53:50;;;;;;;42.38;34.60;;;13.80;99.90;;;;;;5058992;28;20044;-61
2022/09/12 05:56:22;;;;;;;43.97;35.53;;;13.90;99.90;;;;;;5047417;28;20045;-61
2022/09/12 05:58:54;;;;;;;40.42;33.85;;;13.90;99.90;;;;;;5062738;28;20048;-61
2022/09/12 06:01:20;;;;;;;39.90;33.97;;;14.10;99.90;;;;;;5049075;28;20049;-61
2022/09/12 06:03:48;;;;;;;42.95;33.65;;;14.00;99.90;;;;;;5058685;28;20040;-61
2022/09/12 06:06:17;;;;;;;39.90;33.35;;;14.10;99.90;;;;;;5052036;28;20056;-61
2022/09/12 06:08:45;;;;;;;40.20;33.63;;;14.10;99.90;;;;;;5060291;28;20083;-61
2022/09/12 06:11:14;;;;;;;39.97;33.72;;;14.10;99.90;;;;;;5051025;28;20094;-61
2022/09/12 06:13:41;;;;;;;38.45;33.08;;;14.20;99.90;;;;;;5060741;28;20105;-61
2022/09/12 06:16:15;;;;;;;42.60;33.85;;;14.20;99.90;;;;;;5045724;28;20036;-61
2022/09/12 06:18:45;;;;;;;38.38;32.35;;;14.20;99.90;;;;;;5061611;28;20037;-60
2022/09/12 06:21:11;;;;;;;37.65;32.28;;;14.20;99.90;;;;;;5050506;28;20401;-61
2022/09/12 06:23:38;;;;;;;37.92;31.83;;;14.20;99.90;;;;;;5056228;28;20037;-60
2022/09/12 06:26:06;;;;;;;37.97;32.28;;;14.30;99.90;;;;;;5055417;28;20154;-60
2022/09/12 06:28:34;;;;;;;39.17;32.88;;;14.30;99.90;;;;;;5051405;28;20040;-60
2022/09/12 06:31:04;;;;;;;39.88;32.40;;;14.30;99.90;;;;;;5058709;28;20041;-60
2022/09/12 06:33:35;;;;;;;38.53;32.35;;;14.30;99.90;;;;;;5046237;28;20049;-63
2022/09/12 06:36:05;;;;;;;38.83;33.55;;;14.40;99.90;;;;;;5047261;28;20048;-61
2022/09/12 06:38:31;;;;;;;38.75;32.97;;;14.40;99.90;;;;;;5059232;28;20496;-60
2022/09/12 06:40:58;;;;;;;39.55;34.13;;;14.50;99.90;;;;;;5051153;28;20058;-60
2022/09/12 06:43:24;;;;;;;39.05;32.22;;;14.50;99.90;;;;;;5054907;28;20084;-62
2022/09/12 06:45:50;;;;;;;38.53;32.20;;;14.60;99.90;;;;;;5053883;28;20137;-60
2022/09/12 06:48:16;;;;;;;39.05;31.77;;;14.60;99.90;;;;;;5051345;28;20033;-60
2022/09/12 06:50:41;;;;;;;37.53;32.00;;;14.70;99.90;;;;;;5059554;28;20051;-61
2022/09/12 06:53:07;;;;;;;41.75;31.10;;;14.70;99.90;;;;;;5046227;28;20041;-61
2022/09/12 06:55:33;;;;;;;41.30;32.50;;;14.80;99.90;;;;;;5062110;28;20047;-61
2022/09/12 06:57:59;;;;;;;39.30;32.63;;;14.90;99.90;;;;;;5047415;28;20491;-61
2022/09/12 07:00:25;;;;;;;40.33;32.53;;;14.90;99.90;;;;;;5057857;28;20170;-62
2022/09/12 07:02:55;;;;;;;40.30;33.03;;;14.90;99.90;;;;;;5051825;28;20048;-61
2022/09/12 07:05:21;;;;;;;41.75;32.70;;;14.90;99.90;;;;;;5056093;28;20182;-61
2022/09/12 07:07:47;;;;;;;41.60;32.95;;;15.00;99.90;;;;;;5060167;28;20048;-61
2022/09/12 07:10:13;;;;;;;39.58;33.15;;;15.10;99.90;;;;;;5063853;28;20284;-60
2022/09/12 07:12:38;;;;;;;42.00;33.47;;;15.10;99.90;;;;;;5046994;28;20056;-60
2022/09/12 07:15:05;;;;;;;44.72;33.72;;;15.10;99.90;;;;;;5061718;28;20097;-61
2022/09/12 07:17:30;;;;;;;41.58;34.15;;;15.10;99.90;;;;;;5045148;28;20564;-61
2022/09/12 07:19:56;;;;;;;44.97;35.28;;;15.20;99.90;;;;;;5059474;28;20086;-61
2022/09/12 07:22:22;;;;;;;41.65;34.45;;;15.20;99.90;;;;;;5050614;28;20036;-61
2022/09/12 07:24:47;;;;;;;41.85;33.88;;;15.30;99.90;;;;;;5054125;28;20040;-60
2022/09/12 07:27:13;;;;;;;41.80;32.95;;;15.40;99.90;;;;;;5054410;28;20388;-60
2022/09/12 07:29:39;;;;;;;44.50;34.20;;;15.30;99.90;;;;;;5050791;28;20535;-61
2022/09/12 07:32:05;;;;;;;44.78;35.17;;;15.40;99.90;;;;;;5056964;28;20045;-60
2022/09/12 07:34:31;;;;;;;46.40;34.78;;;15.40;99.90;;;;;;5046809;28;20134;-60
2022/09/12 07:36:57;;;;;;;44.70;35.00;;;15.50;99.90;;;;;;5060894;28;20439;-60
2022/09/12 07:39:23;;;;;;;44.50;34.25;;;15.50;99.90;;;;;;5046527;28;20885;-61
2022/09/12 07:41:48;;;;;;;42.13;34.10;;;15.50;99.90;;;;;;5058589;28;20057;-61
2022/09/12 07:44:14;;;;;;;46.05;34.75;;;15.60;99.90;;;;;;5048469;28;20114;-61
2022/09/12 07:46:40;;;;;;;46.78;35.25;;;15.60;99.90;;;;;;5051752;28;20488;-60
2022/09/12 07:49:06;;;;;;;44.67;34.25;;;15.60;99.90;;;;;;5054454;28;20399;-60
2022/09/12 07:51:32;;;;;;;44.97;34.65;;;15.70;99.90;;;;;;5048818;28;20041;-60
2022/09/12 07:53:58;;;;;;;45.90;33.92;;;15.80;99.90;;;;;;5058319;28;20037;-60
2022/09/12 07:56:25;;;;;;;43.33;33.58;;;15.90;99.90;;;;;;5043961;28;20095;-62
2022/09/12 07:58:51;;;;;;;41.58;33.35;;;16.00;99.90;;;;;;5060799;28;20123;-60
2022/09/12 08:01:23;;;;;;;41.30;32.53;;;16.00;99.90;;;;;;5045629;28;20124;-60
2022/09/12 08:03:53;;;;;;;42.08;32.15;;;16.10;99.90;;;;;;5056751;28;20049;-60
2022/09/12 08:06:24;;;;;;;37.55;30.13;;;16.30;99.90;;;;;;5049701;28;20045;-60
2022/09/12 08:08:51;;;;;;;38.17;29.40;;;16.40;99.90;;;;;;5058472;28;20070;-60
2022/09/12 08:11:19;;;;;;;38.78;29.00;;;16.40;99.90;;;;;;5048283;28;20051;-60
2022/09/12 08:13:45;;;;;;;37.35;29.10;;;16.50;99.90;;;;;;5057932;28;20048;-60
2022/09/12 08:16:16;;;;;;;34.65;28.25;;;16.60;99.90;;;;;;5043666;28;20063;-60
2022/09/12 08:18:43;;;;;;;34.60;28.25;;;16.60;99.90;;;;;;5058763;28;20376;-60
2022/09/12 08:21:14;;;;;;;38.55;28.13;;;16.60;99.90;;;;;;5047053;28;20152;-60
2022/09/12 08:23:40;;;;;;;34.92;25.90;;;16.70;99.90;;;;;;5052548;28;20125;-60
2022/09/12 08:26:06;;;;;;;34.50;27.40;;;16.70;99.90;;;;;;5052034;28;20501;-59
2022/09/12 08:28:34;;;;;;;30.80;25.90;;;16.70;99.90;;;;;;5049620;28;20045;-61
2022/09/12 08:31:05;;;;;;;33.55;26.60;;;16.70;99.90;;;;;;5056003;28;20085;-59
2022/09/12 08:33:32;;;;;;;31.15;25.42;;;16.70;99.90;;;;;;5044410;28;20052;-59
2022/09/12 08:36:21;;;;;;;31.77;25.40;;;16.80;99.90;;;;;;5058580;28;20045;-60
2022/09/12 08:38:50;;;;;;;30.00;24.17;;;16.80;99.90;;;;;;5047508;28;20440;-60
2022/09/12 08:41:33;;;;;;;30.13;25.02;;;16.90;99.90;;;;;;5052337;28;20927;-61
2022/09/12 08:44:20;;;;;;;28.30;23.65;;;17.00;99.90;;;;;;5055819;28;20036;-59
2022/09/12 08:46:52;;;;;;;26.63;21.88;;;17.10;99.90;;;;;;5041732;28;20055;-59
2022/09/12 08:49:32;;;;;;;33.40;23.63;;;17.20;99.90;;;;;;5058228;28;20163;-60
2022/09/12 08:52:04;;;;;;;26.85;21.70;;;17.30;99.90;;;;;;5048521;28;20454;-60
2022/09/12 08:54:31;;;;;;;25.85;21.52;;;17.40;99.90;;;;;;5050866;28;20045;-60
2022/09/12 08:57:05;;;;;;;27.00;21.33;;;17.30;99.90;;;;;;5054554;28;20040;-60
2022/09/12 08:59:45;;;;;;;25.42;20.60;;;17.50;99.90;;;;;;5045448;28;20048;-60
2022/09/12 09:02:29;;;;;;;24.67;20.40;;;17.50;99.90;;;;;;5043048;28;20045;-59
2022/09/12 09:05:15;;;;;;;24.60;18.90;;;17.60;99.90;;;;;;5055116;28;20083;-60
2022/09/12 09:07:59;;;;;;;21.42;18.13;;;17.70;99.90;;;;;;5057157;28;20052;-56
2022/09/12 09:10:49;;;;;;;24.97;20.43;;;17.80;99.90;;;;;;5061699;28;20045;-60
2022/09/12 09:14:46;;;;;;;22.58;18.35;;;17.90;99.90;;;;;;5043836;28;20973;-60
2022/09/12 09:16:14;;;;;;;20.27;15.23;;;18.10;99.90;;;;;;5056945;28;20096;-60
2022/09/12 09:18:43;;;;;;;22.92;18.27;;;18.00;99.90;;;;;;5050581;28;20053;-60
2022/09/12 09:21:25;;;;;;;20.98;17.13;;;18.10;99.90;;;;;;5051186;28;20466;-60
2022/09/12 09:23:58;;;;;;;21.02;17.00;;;18.20;99.90;;;;;;5051041;28;20060;-60
2022/09/12 09:26:38;;;;;;;17.40;15.25;;;18.20;99.90;;;;;;5051641;28;20455;-61
2022/09/12 09:29:35;;;;;;;17.88;15.15;;;18.30;99.90;;;;;;5049346;28;20131;-60
2022/09/12 09:32:08;;;;;;;18.27;14.73;;;18.30;99.90;;;;;;5046494;28;20057;-60
2022/09/12 09:34:34;;;;;;;17.48;14.55;;;18.30;99.90;;;;;;5054676;28;20090;-59
2022/09/12 09:37:19;;;;;;;18.55;15.43;;;18.40;99.90;;;;;;5051613;28;20036;-60
2022/09/12 09:39:48;;;;;;;17.83;14.07;;;18.50;99.90;;;;;;5052151;28;20597;-60
2022/09/12 09:42:21;;;;;;;18.30;14.75;;;18.70;99.90;;;;;;5052995;28;20182;-60
2022/09/12 09:44:47;;;;;;;16.80;13.88;;;18.80;99.90;;;;;;5051133;28;20048;-60
2022/09/12 09:47:14;;;;;;;15.63;13.63;;;18.90;99.90;;;;;;5048178;28;20048;-60
2022/09/12 09:49:40;;;;;;;16.83;13.93;;;18.80;99.90;;;;;;5061057;28;20047;-60
2022/09/12 09:52:07;;;;;;;16.85;13.82;;;18.80;99.90;;;;;;5046760;28;20139;-60
2022/09/12 09:54:41;;;;;;;17.00;13.10;;;18.80;99.90;;;;;;5047048;28;20056;-60
2022/09/12 09:57:45;;;;;;;14.98;13.23;;;18.90;99.90;;;;;;5059324;28;20124;-60
2022/09/12 10:00:30;;;;;;;15.95;12.60;;;19.10;99.90;;;;;;5055216;28;20056;-61
2022/09/12 10:03:08;;;;;;;15.80;12.90;;;19.00;99.90;;;;;;5047595;28;20048;-60
2022/09/12 10:05:54;;;;;;;15.35;11.95;;;19.10;99.90;;;;;;5049517;28;20051;-60
2022/09/12 10:08:27;;;;;;;19.98;14.60;;;19.40;99.90;;;;;;5048183;28;20116;-60
2022/09/12 10:11:27;;;;;;;20.77;15.77;;;19.50;99.90;;;;;;5043665;28;20107;-60
2022/09/12 10:13:56;;;;;;;18.77;14.18;;;19.50;99.90;;;;;;5050255;28;20111;-64
2022/09/12 10:16:47;;;;;;;20.27;14.40;;;19.60;99.90;;;;;;5046167;28;20045;-60
2022/09/12 10:19:23;;;;;;;18.40;11.90;;;19.80;99.90;;;;;;5057242;28;20427;-60
2022/09/12 10:21:54;;;;;;;21.58;16.48;;;19.80;99.90;;;;;;5055621;28;20128;-60
2022/09/12 10:24:25;;;;;;;22.23;17.38;;;20.00;99.90;;;;;;5051544;28;20040;-60
2022/09/12 10:26:57;;;;;;;22.05;17.40;;;20.00;99.90;;;;;;5060835;28;20048;-60
2022/09/12 10:29:32;;;;;;;22.83;17.65;;;20.10;99.90;;;;;;5046336;28;20047;-63
2022/09/12 10:32:02;;;;;;;23.70;17.40;;;20.50;99.90;;;;;;5058598;28;20159;-60
2022/09/12 10:34:35;;;;;;;25.35;16.52;;;20.80;99.90;;;;;;5051721;28;20451;-60
2022/09/12 10:37:09;;;;;;;29.95;23.67;;;20.50;99.90;;;;;;5053889;28;20102;-60
2022/09/12 10:39:37;;;;;;;27.65;21.58;;;20.90;99.90;;;;;;5057563;28;20127;-60
2022/09/12 10:42:04;;;;;;;29.40;21.75;;;21.10;99.90;;;;;;5048191;28;20341;-60
2022/09/12 10:44:32;;;;;;;26.20;17.88;;;21.40;99.90;;;;;;5061745;28;20072;-60
2022/09/12 10:47:17;;;;;;;29.77;22.25;;;21.10;99.90;;;;;;5046049;28;20049;-60
2022/09/12 10:49:43;;;;;;;31.65;23.35;;;21.20;99.90;;;;;;5055597;28;20049;-60
2022/09/12 10:52:23;;;;;;;28.70;19.88;;;21.20;99.90;;;;;;5053420;28;20435;-60
2022/09/12 10:54:53;;;;;;;28.27;20.52;;;21.40;99.90;;;;;;5054034;28;20041;-60
2022/09/12 10:57:53;;;;;;;29.20;22.05;;;21.70;99.90;;;;;;5052077;28;20050;-61
2022/09/12 11:00:26;;;;;;;30.63;22.63;;;22.10;99.90;;;;;;5046192;28;20092;-60
2022/09/12 11:03:33;;;;;;;28.35;20.73;;;21.80;99.90;;;;;;5052058;28;20076;-60
2022/09/12 11:06:00;;;;;;;27.00;18.92;;;21.80;99.90;;;;;;5008110;28;20106;-60
2022/09/12 11:09:04;;;;;;;27.27;20.55;;;21.80;99.90;;;;;;5057777;28;20082;-61
2022/09/12 11:11:33;;;;;;;27.27;20.20;;;21.80;99.90;;;;;;5050342;28;20102;-60
2022/09/12 11:14:26;;;;;;;27.60;20.63;;;21.90;99.90;;;;;;5053594;28;20091;-60
2022/09/12 11:17:01;;;;;;;26.67;18.90;;;22.10;99.90;;;;;;5057783;28;20040;-60
2022/09/12 11:19:35;;;;;;;25.58;17.15;;;22.30;99.90;;;;;;5043940;28;20091;-61
2022/09/12 11:23:05;;;;;;;26.83;19.15;;;22.30;99.90;;;;;;5059797;28;20420;-60
2022/09/12 11:25:42;;;;;;;24.83;15.93;;;22.10;99.90;;;;;;4967808;28;20109;-61
2022/09/12 11:28:25;;;;;;;22.35;16.35;;;22.10;99.90;;;;;;5045042;28;20049;-61
2022/09/12 11:31:04;;;;;;;24.70;18.40;;;22.10;99.90;;;;;;5047514;28;20144;-60
2022/09/12 11:33:43;;;;;;;24.10;17.50;;;22.40;99.90;;;;;;5055156;28;20480;-61
2022/09/12 11:36:35;;;;;;;20.15;14.98;;;22.70;99.90;;;;;;5053906;28;20052;-61
2022/09/12 11:39:12;;;;;;;17.95;14.07;;;22.90;99.90;;;;;;5052206;28;20411;-60
2022/09/12 11:41:41;;;;;;;17.58;12.02;;;22.80;99.90;;;;;;5045578;28;20443;-61
2022/09/12 11:44:27;;;;;;;20.35;14.15;;;22.70;99.90;;;;;;5057247;28;20369;-61
2022/09/12 11:46:53;;;;;;;20.23;14.63;;;22.80;99.90;;;;;;5053276;28;20040;-62
2022/09/12 11:49:42;;;;;;;19.08;12.00;;;22.80;99.90;;;;;;5050961;28;20045;-60
2022/09/12 11:52:28;;;;;;;21.10;15.27;;;22.80;99.90;;;;;;5061092;28;20436;-59
2022/09/12 11:55:07;;;;;;;19.70;14.73;;;22.80;99.90;;;;;;5047068;28;20044;-61
2022/09/12 11:57:42;;;;;;;24.58;13.13;;;22.50;99.90;;;;;;5054106;28;20084;-60
2022/09/12 12:00:20;;;;;;;20.13;15.82;;;22.50;99.90;;;;;;5054154;28;20168;-61
2022/09/12 12:03:12;;;;;;;20.50;14.18;;;22.80;99.90;;;;;;5046384;28;20426;-61
2022/09/12 12:05:52;;;;;;;21.10;14.85;;;22.90;99.90;;;;;;5048001;28;20419;-61
2022/09/12 12:08:20;;;;;;;19.67;15.20;;;23.00;99.90;;;;;;5054730;28;20059;-61
2022/09/12 12:10:58;;;;;;;17.67;12.13;;;23.00;99.90;;;;;;5052422;28;20765;-61
2022/09/12 12:13:30;;;;;;;19.00;14.35;;;23.10;99.90;;;;;;5055412;28;20125;-63
2022/09/12 12:16:06;;;;;;;23.25;15.00;;;22.90;99.90;;;;;;5045499;28;20094;-61
2022/09/12 12:18:35;;;;;;;19.90;11.85;;;23.20;99.90;;;;;;5060209;28;20045;-61
2022/09/12 12:21:35;;;;;;;17.92;12.98;;;23.50;99.90;;;;;;5046550;28;20777;-61
2022/09/12 12:24:06;;;;;;;17.52;13.32;;;23.00;99.90;;;;;;5051801;28;20535;-61
2022/09/12 12:26:41;;;;;;;16.08;12.20;;;23.00;99.90;;;;;;5053655;28;20136;-61
2022/09/12 12:29:16;;;;;;;14.13;9.93;;;23.00;99.90;;;;;;5045296;28;20055;-60
2022/09/12 12:32:03;;;;;;;14.15;11.07;;;23.20;99.90;;;;;;5042678;28;20055;-61
2022/09/12 12:34:39;;;;;;;17.50;11.80;;;23.50;99.90;;;;;;5054512;28;20045;-61
2022/09/12 12:37:21;;;;;;;14.93;11.20;;;23.20;99.90;;;;;;5051365;28;20402;-61
2022/09/12 12:39:46;;;;;;;14.98;9.63;;;23.50;99.90;;;;;;5047002;28;20208;-61
2022/09/12 12:42:34;;;;;;;15.25;10.57;;;23.10;99.90;;;;;;5058586;28;20147;-61
2022/09/12 12:45:16;;;;;;;15.10;11.32;;;23.30;99.90;;;;;;5044540;28;20036;-61
2022/09/12 12:47:46;;;;;;;15.57;11.07;;;23.70;99.90;;;;;;5054148;28;20072;-61
2022/09/12 12:50:22;;;;;;;13.55;10.43;;;23.60;99.90;;;;;;5051125;28;20044;-61
2022/09/12 12:52:50;;;;;;;15.88;11.13;;;23.50;99.90;;;;;;5047917;28;20140;-61
2022/09/12 12:55:25;;;;;;;16.73;12.13;;;23.90;99.90;;;;;;5057755;28;20053;-61